sensor_id;sensor_type;location;lat;lon;timestamp;pressure;altitude;pressure_sealevel;temperature
71807;BMP280;59655;42.590;23.364;2022-08-20T00:00:31;91392.22;;;24.45
71807;BMP280;59655;42.590;23.364;2022-08-20T00:03:04;91393.19;;;24.32
71807;BMP280;59655;42.590;23.364;2022-08-20T00:05:42;91387.94;;;24.38
71807;BMP280;59655;42.590;23.364;2022-08-20T00:08:09;91384.53;;;24.38
71807;BMP280;59655;42.590;23.364;2022-08-20T00:10:37;91388.06;;;24.42
71807;BMP280;59655;42.590;23.364;2022-08-20T00:13:04;91394.69;;;24.37
71807;BMP280;59655;42.590;23.364;2022-08-20T00:15:33;91389.22;;;24.35
71807;BMP280;59655;42.590;23.364;2022-08-20T00:17:59;91392.09;;;24.41
71807;BMP280;59655;42.590;23.364;2022-08-20T00:20:28;91396.94;;;24.45
71807;BMP280;59655;42.590;23.364;2022-08-20T00:22:54;91389.94;;;24.38
71807;BMP280;59655;42.590;23.364;2022-08-20T00:25:21;91387.06;;;24.32
71807;BMP280;59655;42.590;23.364;2022-08-20T00:27:47;91383.72;;;24.33
71807;BMP280;59655;42.590;23.364;2022-08-20T00:30:13;91386.41;;;24.33
71807;BMP280;59655;42.590;23.364;2022-08-20T00:32:49;91384.47;;;24.36
71807;BMP280;59655;42.590;23.364;2022-08-20T00:35:16;91384.41;;;24.34
71807;BMP280;59655;42.590;23.364;2022-08-20T00:37:42;91378.69;;;24.24
71807;BMP280;59655;42.590;23.364;2022-08-20T00:40:11;91371.81;;;24.20
71807;BMP280;59655;42.590;23.364;2022-08-20T00:42:55;91384.06;;;24.22
71807;BMP280;59655;42.590;23.364;2022-08-20T00:45:23;91380.34;;;24.11
71807;BMP280;59655;42.590;23.364;2022-08-20T00:47:49;91383.66;;;24.09
71807;BMP280;59655;42.590;23.364;2022-08-20T00:50:18;91379.53;;;24.06
71807;BMP280;59655;42.590;23.364;2022-08-20T00:52:47;91376.88;;;24.08
71807;BMP280;59655;42.590;23.364;2022-08-20T00:55:15;91378.31;;;24.11
71807;BMP280;59655;42.590;23.364;2022-08-20T00:57:42;91375.03;;;24.15
71807;BMP280;59655;42.590;23.364;2022-08-20T01:00:15;91368.81;;;24.10
71807;BMP280;59655;42.590;23.364;2022-08-20T01:02:40;91372.53;;;23.99
71807;BMP280;59655;42.590;23.364;2022-08-20T01:05:07;91364.63;;;24.07
71807;BMP280;59655;42.590;23.364;2022-08-20T01:07:35;91371.69;;;24.16
71807;BMP280;59655;42.590;23.364;2022-08-20T01:10:15;91356.16;;;24.19
71807;BMP280;59655;42.590;23.364;2022-08-20T01:12:42;91352.00;;;24.16
71807;BMP280;59655;42.590;23.364;2022-08-20T01:15:10;91353.34;;;24.15
71807;BMP280;59655;42.590;23.364;2022-08-20T01:17:41;91353.91;;;24.11
71807;BMP280;59655;42.590;23.364;2022-08-20T01:20:15;91348.97;;;24.06
71807;BMP280;59655;42.590;23.364;2022-08-20T01:22:44;91347.16;;;24.12
71807;BMP280;59655;42.590;23.364;2022-08-20T01:28:09;91345.34;;;23.97
71807;BMP280;59655;42.590;23.364;2022-08-20T01:30:36;91347.38;;;23.97
71807;BMP280;59655;42.590;23.364;2022-08-20T01:33:02;91342.81;;;24.03
71807;BMP280;59655;42.590;23.364;2022-08-20T01:35:28;91348.25;;;24.03
71807;BMP280;59655;42.590;23.364;2022-08-20T01:37:54;91339.47;;;24.05
71807;BMP280;59655;42.590;23.364;2022-08-20T01:43:05;91342.88;;;24.05
71807;BMP280;59655;42.590;23.364;2022-08-20T01:45:33;91342.19;;;24.05
71807;BMP280;59655;42.590;23.364;2022-08-20T01:48:00;91342.88;;;24.05
71807;BMP280;59655;42.590;23.364;2022-08-20T01:50:27;91340.09;;;24.03
71807;BMP280;59655;42.590;23.364;2022-08-20T01:53:00;91325.78;;;24.01
71807;BMP280;59655;42.590;23.364;2022-08-20T01:55:28;91328.56;;;24.03
71807;BMP280;59655;42.590;23.364;2022-08-20T01:57:54;91324.44;;;24.02
71807;BMP280;59655;42.590;23.364;2022-08-20T02:00:20;91321.13;;;24.03
71807;BMP280;59655;42.590;23.364;2022-08-20T02:02:46;91318.41;;;24.03
71807;BMP280;59655;42.590;23.364;2022-08-20T02:05:12;91317.47;;;23.94
71807;BMP280;59655;42.590;23.364;2022-08-20T02:07:37;91318.16;;;23.95
71807;BMP280;59655;42.590;23.364;2022-08-20T02:10:08;91317.28;;;23.88
71807;BMP280;59655;42.590;23.364;2022-08-20T02:12:34;91310.72;;;23.95
71807;BMP280;59655;42.590;23.364;2022-08-20T02:15:01;91312.63;;;23.91
71807;BMP280;59655;42.590;23.364;2022-08-20T02:17:27;91309.78;;;23.87
71807;BMP280;59655;42.590;23.364;2022-08-20T02:19:56;91310.03;;;23.95
71807;BMP280;59655;42.590;23.364;2022-08-20T02:24:50;91317.47;;;23.94
71807;BMP280;59655;42.590;23.364;2022-08-20T02:27:16;91308.22;;;23.80
71807;BMP280;59655;42.590;23.364;2022-08-20T02:29:43;91313.19;;;23.87
71807;BMP280;59655;42.590;23.364;2022-08-20T02:32:09;91304.56;;;23.93
71807;BMP280;59655;42.590;23.364;2022-08-20T02:34:35;91303.56;;;23.82
71807;BMP280;59655;42.590;23.364;2022-08-20T02:37:02;91305.69;;;23.86
71807;BMP280;59655;42.590;23.364;2022-08-20T02:39:28;91311.69;;;23.82
71807;BMP280;59655;42.590;23.364;2022-08-20T02:41:53;91312.38;;;23.83
71807;BMP280;59655;42.590;23.364;2022-08-20T02:44:18;91315.28;;;23.89
71807;BMP280;59655;42.590;23.364;2022-08-20T02:46:46;91316.53;;;23.86
71807;BMP280;59655;42.590;23.364;2022-08-20T02:49:15;91308.22;;;23.80
71807;BMP280;59655;42.590;23.364;2022-08-20T02:51:42;91302.63;;;23.74
71807;BMP280;59655;42.590;23.364;2022-08-20T02:54:07;91309.53;;;23.79
71807;BMP280;59655;42.590;23.364;2022-08-20T02:56:33;91316.41;;;23.82
71807;BMP280;59655;42.590;23.364;2022-08-20T02:58:58;91311.00;;;23.82
71807;BMP280;59655;42.590;23.364;2022-08-20T03:01:24;91317.47;;;23.73
71807;BMP280;59655;42.590;23.364;2022-08-20T03:03:49;91323.47;;;23.69
71807;BMP280;59655;42.590;23.364;2022-08-20T03:06:15;91318.16;;;23.73
71807;BMP280;59655;42.590;23.364;2022-08-20T03:08:41;91315.28;;;23.67
71807;BMP280;59655;42.590;23.364;2022-08-20T03:11:07;91318.75;;;23.69
71807;BMP280;59655;42.590;23.364;2022-08-20T03:13:33;91319.44;;;23.70
71807;BMP280;59655;42.590;23.364;2022-08-20T03:16:00;91313.59;;;23.78
71807;BMP280;59655;42.590;23.364;2022-08-20T03:18:29;91318.94;;;23.76
71807;BMP280;59655;42.590;23.364;2022-08-20T03:20:55;91314.94;;;23.79
71807;BMP280;59655;42.590;23.364;2022-08-20T03:23:21;91318.13;;;23.71
71807;BMP280;59655;42.590;23.364;2022-08-20T03:25:46;91318.88;;;23.74
71807;BMP280;59655;42.590;23.364;2022-08-20T03:28:12;91314.28;;;23.78
71807;BMP280;59655;42.590;23.364;2022-08-20T03:30:39;91318.13;;;23.71
71807;BMP280;59655;42.590;23.364;2022-08-20T03:33:05;91312.13;;;23.75
71807;BMP280;59655;42.590;23.364;2022-08-20T03:35:31;91318.16;;;23.73
71807;BMP280;59655;42.590;23.364;2022-08-20T03:37:58;91310.69;;;23.71
71807;BMP280;59655;42.590;23.364;2022-08-20T03:40:27;91310.00;;;23.71
71807;BMP280;59655;42.590;23.364;2022-08-20T03:42:53;91313.19;;;23.65
71807;BMP280;59655;42.590;23.364;2022-08-20T03:45:19;91317.91;;;23.65
71807;BMP280;59655;42.590;23.364;2022-08-20T03:47:45;91315.59;;;23.55
71807;BMP280;59655;42.590;23.364;2022-08-20T03:50:12;91321.31;;;23.43
71807;BMP280;59655;42.590;23.364;2022-08-20T03:52:38;91314.81;;;23.53
71807;BMP280;59655;42.590;23.364;2022-08-20T03:55:05;91313.94;;;23.46
71807;BMP280;59655;42.590;23.364;2022-08-20T03:57:31;91315.72;;;23.37
71807;BMP280;59655;42.590;23.364;2022-08-20T03:59:56;91316.28;;;23.34
71807;BMP280;59655;42.590;23.364;2022-08-20T04:02:22;91317.44;;;23.29
71807;BMP280;59655;42.590;23.364;2022-08-20T04:04:47;91325.47;;;23.27
71807;BMP280;59655;42.590;23.364;2022-08-20T04:07:16;91322.78;;;23.27
71807;BMP280;59655;42.590;23.364;2022-08-20T04:09:41;91324.75;;;23.24
71807;BMP280;59655;42.590;23.364;2022-08-20T04:12:10;91316.91;;;23.12
71807;BMP280;59655;42.590;23.364;2022-08-20T04:14:37;91319.47;;;23.08
71807;BMP280;59655;42.590;23.364;2022-08-20T04:17:08;91316.72;;;23.06
71807;BMP280;59655;42.590;23.364;2022-08-20T04:19:36;91316.16;;;23.10
71807;BMP280;59655;42.590;23.364;2022-08-20T04:22:01;91316.22;;;23.12
71807;BMP280;59655;42.590;23.364;2022-08-20T04:24:27;91320.81;;;23.07
71807;BMP280;59655;42.590;23.364;2022-08-20T04:26:53;91315.44;;;23.09
71807;BMP280;59655;42.590;23.364;2022-08-20T04:29:20;91322.31;;;23.12
71807;BMP280;59655;42.590;23.364;2022-08-20T04:31:46;91321.63;;;23.12
71807;BMP280;59655;42.590;23.364;2022-08-20T04:34:11;91312.19;;;23.13
71807;BMP280;59655;42.590;23.364;2022-08-20T04:36:37;91316.22;;;23.12
71807;BMP280;59655;42.590;23.364;2022-08-20T04:39:04;91319.13;;;23.18
71807;BMP280;59655;42.590;23.364;2022-08-20T04:41:29;91315.06;;;23.19
71807;BMP280;59655;42.590;23.364;2022-08-20T04:43:55;91320.56;;;23.21
71807;BMP280;59655;42.590;23.364;2022-08-20T04:46:22;91322.47;;;23.16
71807;BMP280;59655;42.590;23.364;2022-08-20T04:48:49;91326.00;;;23.21
71807;BMP280;59655;42.590;23.364;2022-08-20T04:51:15;91329.53;;;23.26
71807;BMP280;59655;42.590;23.364;2022-08-20T04:53:41;91324.13;;;23.26
71807;BMP280;59655;42.590;23.364;2022-08-20T04:56:07;91321.41;;;23.26
71807;BMP280;59655;42.590;23.364;2022-08-20T04:58:36;91326.75;;;23.24
71807;BMP280;59655;42.590;23.364;2022-08-20T05:01:07;91322.16;;;23.28
71807;BMP280;59655;42.590;23.364;2022-08-20T05:03:34;91325.78;;;23.35
71807;BMP280;59655;42.590;23.364;2022-08-20T05:06:00;91319.72;;;23.36
71807;BMP280;59655;42.590;23.364;2022-08-20T05:08:26;91321.13;;;23.37
71807;BMP280;59655;42.590;23.364;2022-08-20T05:10:53;91316.88;;;23.32
71807;BMP280;59655;42.590;23.364;2022-08-20T05:13:19;91310.28;;;23.37
71807;BMP280;59655;42.590;23.364;2022-08-20T05:15:45;91322.56;;;23.40
71807;BMP280;59655;42.590;23.364;2022-08-20T05:18:11;91324.63;;;23.42
71807;BMP280;59655;42.590;23.364;2022-08-20T05:20:39;91324.75;;;23.46
71807;BMP280;59655;42.590;23.364;2022-08-20T05:23:10;91319.94;;;23.42
71807;BMP280;59655;42.590;23.364;2022-08-20T05:25:37;91318.09;;;23.49
71807;BMP280;59655;42.590;23.364;2022-08-20T05:28:10;91322.13;;;23.48
71807;BMP280;59655;42.590;23.364;2022-08-20T05:30:39;91314.81;;;23.53
71807;BMP280;59655;42.590;23.364;2022-08-20T05:33:07;91316.34;;;23.58
71807;BMP280;59655;42.590;23.364;2022-08-20T05:35:35;91310.44;;;23.63
71807;BMP280;59655;42.590;23.364;2022-08-20T05:38:03;91302.34;;;23.65
71807;BMP280;59655;42.590;23.364;2022-08-20T05:40:29;91304.56;;;23.71
71807;BMP280;59655;42.590;23.364;2022-08-20T05:42:56;91293.78;;;23.73
71807;BMP280;59655;42.590;23.364;2022-08-20T05:45:22;91303.94;;;23.73
71807;BMP280;59655;42.590;23.364;2022-08-20T05:47:47;91305.38;;;23.76
71807;BMP280;59655;42.590;23.364;2022-08-20T05:50:14;91313.63;;;23.80
71807;BMP280;59655;42.590;23.364;2022-08-20T05:52:41;91309.03;;;23.84
71807;BMP280;59655;42.590;23.364;2022-08-20T05:55:08;91298.25;;;23.86
71807;BMP280;59655;42.590;23.364;2022-08-20T05:57:34;91308.50;;;23.90
71807;BMP280;59655;42.590;23.364;2022-08-20T06:00:01;91305.31;;;23.95
71807;BMP280;59655;42.590;23.364;2022-08-20T06:02:27;91296.66;;;24.01
71807;BMP280;59655;42.590;23.364;2022-08-20T06:05:11;91298.13;;;24.04
71807;BMP280;59655;42.590;23.364;2022-08-20T06:07:37;91293.44;;;24.07
71807;BMP280;59655;42.590;23.364;2022-08-20T06:10:03;91290.84;;;24.11
71807;BMP280;59655;42.590;23.364;2022-08-20T06:12:29;91299.72;;;24.13
71807;BMP280;59655;42.590;23.364;2022-08-20T06:14:54;91308.00;;;24.17
71807;BMP280;59655;42.590;23.364;2022-08-20T06:17:20;91305.34;;;24.19
71807;BMP280;59655;42.590;23.364;2022-08-20T06:19:47;91303.38;;;24.22
71807;BMP280;59655;42.590;23.364;2022-08-20T06:22:13;91308.22;;;24.26
71807;BMP280;59655;42.590;23.364;2022-08-20T06:24:39;91311.63;;;24.26
71807;BMP280;59655;42.590;23.364;2022-08-20T06:27:05;91314.41;;;24.28
71807;BMP280;59655;42.590;23.364;2022-08-20T06:29:31;91317.78;;;24.29
71807;BMP280;59655;42.590;23.364;2022-08-20T06:31:59;91312.41;;;24.31
71807;BMP280;59655;42.590;23.364;2022-08-20T06:34:26;91305.63;;;24.30
71807;BMP280;59655;42.590;23.364;2022-08-20T06:36:53;91313.81;;;24.32
71807;BMP280;59655;42.590;23.364;2022-08-20T06:39:18;91319.28;;;24.34
71807;BMP280;59655;42.590;23.364;2022-08-20T06:41:44;91315.28;;;24.35
71807;BMP280;59655;42.590;23.364;2022-08-20T06:44:09;91308.56;;;24.38
71807;BMP280;59655;42.590;23.364;2022-08-20T06:46:35;91311.97;;;24.38
71807;BMP280;59655;42.590;23.364;2022-08-20T06:49:05;91310.00;;;24.41
71807;BMP280;59655;42.590;23.364;2022-08-20T06:51:32;91320.97;;;24.45
71807;BMP280;59655;42.590;23.364;2022-08-20T06:53:58;91319.63;;;24.46
71807;BMP280;59655;42.590;23.364;2022-08-20T06:56:24;91323.81;;;24.49
71807;BMP280;59655;42.590;23.364;2022-08-20T06:58:49;91315.72;;;24.51
71807;BMP280;59655;42.590;23.364;2022-08-20T07:01:15;91312.34;;;24.51
71807;BMP280;59655;42.590;23.364;2022-08-20T07:03:46;91314.41;;;24.52
71807;BMP280;59655;42.590;23.364;2022-08-20T07:06:13;91312.38;;;24.53
71807;BMP280;59655;42.590;23.364;2022-08-20T07:08:38;91314.47;;;24.54
71807;BMP280;59655;42.590;23.364;2022-08-20T07:11:04;91312.50;;;24.57
71807;BMP280;59655;42.590;23.364;2022-08-20T07:13:29;91298.28;;;24.58
71807;BMP280;59655;42.590;23.364;2022-08-20T07:15:55;91300.38;;;24.60
71807;BMP280;59655;42.590;23.364;2022-08-20T07:18:23;91303.88;;;24.64
71807;BMP280;59655;42.590;23.364;2022-08-20T07:20:49;91306.63;;;24.66
71807;BMP280;59655;42.590;23.364;2022-08-20T07:23:14;91299.81;;;24.65
71807;BMP280;59655;42.590;23.364;2022-08-20T07:25:41;91298.44;;;24.64
71807;BMP280;59655;42.590;23.364;2022-08-20T07:28:14;91300.59;;;24.68
71807;BMP280;59655;42.590;23.364;2022-08-20T07:30:40;91304.00;;;24.68
71807;BMP280;59655;42.590;23.364;2022-08-20T07:33:25;91305.44;;;24.72
71807;BMP280;59655;42.590;23.364;2022-08-20T07:35:52;91296.66;;;24.73
71807;BMP280;59655;42.590;23.364;2022-08-20T07:38:21;91295.94;;;24.73
71807;BMP280;59655;42.590;23.364;2022-08-20T07:40:55;91300.78;;;24.76
71807;BMP280;59655;42.590;23.364;2022-08-20T07:43:21;91301.47;;;24.77
71807;BMP280;59655;42.590;23.364;2022-08-20T07:45:51;91301.59;;;24.81
71807;BMP280;59655;42.590;23.364;2022-08-20T07:48:18;91291.44;;;24.81
71807;BMP280;59655;42.590;23.364;2022-08-20T07:50:44;91289.41;;;24.82
71807;BMP280;59655;42.590;23.364;2022-08-20T07:53:09;91289.44;;;24.84
71807;BMP280;59655;42.590;23.364;2022-08-20T07:55:36;91294.94;;;24.86
71807;BMP280;59655;42.590;23.364;2022-08-20T07:58:08;91294.28;;;24.87
71807;BMP280;59655;42.590;23.364;2022-08-20T08:00:33;91293.66;;;24.89
71807;BMP280;59655;42.590;23.364;2022-08-20T08:02:59;91290.31;;;24.90
71807;BMP280;59655;42.590;23.364;2022-08-20T08:05:25;91287.59;;;24.90
71807;BMP280;59655;42.590;23.364;2022-08-20T08:07:50;91294.47;;;24.93
71807;BMP280;59655;42.590;23.364;2022-08-20T08:10:20;91291.78;;;24.95
71807;BMP280;59655;42.590;23.364;2022-08-20T08:12:49;91301.34;;;24.97
71807;BMP280;59655;42.590;23.364;2022-08-20T08:15:17;91292.63;;;25.00
71807;BMP280;59655;42.590;23.364;2022-08-20T08:17:46;91290.56;;;25.01
71807;BMP280;59655;42.590;23.364;2022-08-20T08:20:13;91295.38;;;25.02
71807;BMP280;59655;42.590;23.364;2022-08-20T08:22:39;91296.75;;;25.03
71807;BMP280;59655;42.590;23.364;2022-08-20T08:25:12;91286.56;;;25.04
71807;BMP280;59655;42.590;23.364;2022-08-20T08:27:39;91289.34;;;25.06
71807;BMP280;59655;42.590;23.364;2022-08-20T08:30:05;91285.28;;;25.07
71807;BMP280;59655;42.590;23.364;2022-08-20T08:32:31;91287.44;;;25.10
71807;BMP280;59655;42.590;23.364;2022-08-20T08:34:57;91284.72;;;25.10
71807;BMP280;59655;42.590;23.364;2022-08-20T08:37:23;91288.13;;;25.11
71807;BMP280;59655;42.590;23.364;2022-08-20T08:39:48;91284.06;;;25.12
71807;BMP280;59655;42.590;23.364;2022-08-20T08:42:39;91275.97;;;25.14
71807;BMP280;59655;42.590;23.364;2022-08-20T08:45:08;91284.81;;;25.14
71807;BMP280;59655;42.590;23.364;2022-08-20T08:47:36;91275.31;;;25.15
71807;BMP280;59655;42.590;23.364;2022-08-20T08:50:03;91275.38;;;25.17
71807;BMP280;59655;42.590;23.364;2022-08-20T08:52:32;91266.56;;;25.19
71807;BMP280;59655;42.590;23.364;2022-08-20T08:55:01;91272.09;;;25.21
71807;BMP280;59655;42.590;23.364;2022-08-20T08:57:27;91265.94;;;25.20
71807;BMP280;59655;42.590;23.364;2022-08-20T08:59:59;91268.06;;;25.24
71807;BMP280;59655;42.590;23.364;2022-08-20T09:02:26;91255.16;;;25.25
71807;BMP280;59655;42.590;23.364;2022-08-20T09:04:53;91255.84;;;25.25
71807;BMP280;59655;42.590;23.364;2022-08-20T09:07:20;91264.78;;;25.30
71807;BMP280;59655;42.590;23.364;2022-08-20T09:09:48;91259.41;;;25.32
71807;BMP280;59655;42.590;23.364;2022-08-20T09:12:17;91254.03;;;25.34
71807;BMP280;59655;42.590;23.364;2022-08-20T09:14:43;91246.56;;;25.34
71807;BMP280;59655;42.590;23.364;2022-08-20T09:17:10;91250.72;;;25.37
71807;BMP280;59655;42.590;23.364;2022-08-20T09:19:35;91258.22;;;25.39
71807;BMP280;59655;42.590;23.364;2022-08-20T09:22:15;91261.00;;;25.41
71807;BMP280;59655;42.590;23.364;2022-08-20T09:24:41;91258.28;;;25.41
71807;BMP280;59655;42.590;23.364;2022-08-20T09:27:07;91254.97;;;25.44
71807;BMP280;59655;42.590;23.364;2022-08-20T09:29:33;91249.56;;;25.46
71807;BMP280;59655;42.590;23.364;2022-08-20T09:34:40;91250.34;;;25.51
71807;BMP280;59655;42.590;23.364;2022-08-20T09:37:06;91249.69;;;25.53
71807;BMP280;59655;42.590;23.364;2022-08-20T09:39:32;91247.66;;;25.53
71807;BMP280;59655;42.590;23.364;2022-08-20T09:42:26;91245.75;;;25.58
71807;BMP280;59655;42.590;23.364;2022-08-20T09:44:52;91242.41;;;25.61
71807;BMP280;59655;42.590;23.364;2022-08-20T09:47:18;91241.13;;;25.64
71807;BMP280;59655;42.590;23.364;2022-08-20T09:49:45;91247.97;;;25.65
71807;BMP280;59655;42.590;23.364;2022-08-20T09:52:23;91250.00;;;25.67
71807;BMP280;59655;42.590;23.364;2022-08-20T09:54:51;91243.28;;;25.70
71807;BMP280;59655;42.590;23.364;2022-08-20T09:57:19;91244.78;;;25.75
71807;BMP280;59655;42.590;23.364;2022-08-20T09:59:47;91233.31;;;25.79
71807;BMP280;59655;42.590;23.364;2022-08-20T10:02:15;91239.44;;;25.79
71807;BMP280;59655;42.590;23.364;2022-08-20T10:04:40;91248.31;;;25.82
71807;BMP280;59655;42.590;23.364;2022-08-20T10:07:07;91242.28;;;25.85
71807;BMP280;59655;42.590;23.364;2022-08-20T10:09:33;91248.47;;;25.90
71807;BMP280;59655;42.590;23.364;2022-08-20T10:11:59;91243.91;;;25.99
71807;BMP280;59655;42.590;23.364;2022-08-20T10:14:25;91241.81;;;25.97
71807;BMP280;59655;42.590;23.364;2022-08-20T10:16:58;91239.09;;;25.97
71807;BMP280;59655;42.590;23.364;2022-08-20T10:19:24;91233.72;;;25.99
71807;BMP280;59655;42.590;23.364;2022-08-20T10:21:51;91233.16;;;26.05
71807;BMP280;59655;42.590;23.364;2022-08-20T10:24:17;91231.84;;;26.08
71807;BMP280;59655;42.590;23.364;2022-08-20T10:26:43;91233.91;;;26.09
71807;BMP280;59655;42.590;23.364;2022-08-20T10:29:08;91233.97;;;26.11
71807;BMP280;59655;42.590;23.364;2022-08-20T10:31:34;91234.69;;;26.14
71807;BMP280;59655;42.590;23.364;2022-08-20T10:33:59;91221.84;;;26.18
71807;BMP280;59655;42.590;23.364;2022-08-20T10:36:24;91226.69;;;26.22
71807;BMP280;59655;42.590;23.364;2022-08-20T10:38:50;91217.84;;;26.21
71807;BMP280;59655;42.590;23.364;2022-08-20T10:41:15;91221.94;;;26.22
71807;BMP280;59655;42.590;23.364;2022-08-20T10:43:40;91226.16;;;26.30
71807;BMP280;59655;42.590;23.364;2022-08-20T10:46:06;91221.56;;;26.38
71807;BMP280;59655;42.590;23.364;2022-08-20T10:48:31;91218.34;;;26.48
71807;BMP280;59655;42.590;23.364;2022-08-20T10:50:57;91204.84;;;26.54
71807;BMP280;59655;42.590;23.364;2022-08-20T10:53:22;91207.66;;;26.60
71807;BMP280;59655;42.590;23.364;2022-08-20T10:55:48;91200.88;;;26.61
71807;BMP280;59655;42.590;23.364;2022-08-20T10:58:13;91205.69;;;26.65
71807;BMP280;59655;42.590;23.364;2022-08-20T11:00:39;91208.53;;;26.69
71807;BMP280;59655;42.590;23.364;2022-08-20T11:03:05;91208.59;;;26.73
71807;BMP280;59655;42.590;23.364;2022-08-20T11:05:30;91212.72;;;26.78
71807;BMP280;59655;42.590;23.364;2022-08-20T11:07:55;91214.16;;;26.81
71807;BMP280;59655;42.590;23.364;2022-08-20T11:10:29;91214.19;;;26.83
71807;BMP280;59655;42.590;23.364;2022-08-20T11:12:55;91219.06;;;26.89
71807;BMP280;59655;42.590;23.364;2022-08-20T11:15:20;91207.47;;;26.88
71807;BMP280;59655;42.590;23.364;2022-08-20T11:17:46;91210.28;;;26.92
71807;BMP280;59655;42.590;23.364;2022-08-20T11:20:14;91210.28;;;26.94
71807;BMP280;59655;42.590;23.364;2022-08-20T11:22:40;91202.81;;;26.97
71807;BMP280;59655;42.590;23.364;2022-08-20T11:25:06;91198.84;;;27.02
71807;BMP280;59655;42.590;23.364;2022-08-20T11:27:38;91190.75;;;27.08
71807;BMP280;59655;42.590;23.364;2022-08-20T11:30:06;91189.53;;;27.15
71807;BMP280;59655;42.590;23.364;2022-08-20T11:32:32;91186.84;;;27.19
71807;BMP280;59655;42.590;23.364;2022-08-20T11:34:57;91177.91;;;27.15
71807;BMP280;59655;42.590;23.364;2022-08-20T11:37:23;91171.16;;;27.18
71807;BMP280;59655;42.590;23.364;2022-08-20T11:39:49;91173.88;;;27.18
71807;BMP280;59655;42.590;23.364;2022-08-20T11:42:15;91172.53;;;27.19
71807;BMP280;59655;42.590;23.364;2022-08-20T11:44:40;91173.25;;;27.21
71807;BMP280;59655;42.590;23.364;2022-08-20T11:47:06;91167.13;;;27.21
71807;BMP280;59655;42.590;23.364;2022-08-20T11:49:34;91160.25;;;27.18
71807;BMP280;59655;42.590;23.364;2022-08-20T11:51:59;91160.25;;;27.18
71807;BMP280;59655;42.590;23.364;2022-08-20T11:54:25;91174.38;;;27.06
71807;BMP280;59655;42.590;23.364;2022-08-20T11:56:54;91175.84;;;27.11
71807;BMP280;59655;42.590;23.364;2022-08-20T11:59:22;91171.03;;;27.10
71807;BMP280;59655;42.590;23.364;2022-08-20T12:01:47;91171.66;;;27.06
71807;BMP280;59655;42.590;23.364;2022-08-20T12:04:13;91165.38;;;26.97
71807;BMP280;59655;42.590;23.364;2022-08-20T12:06:38;91165.97;;;26.92
71807;BMP280;59655;42.590;23.364;2022-08-20T12:09:03;91153.00;;;26.88
71807;BMP280;59655;42.590;23.364;2022-08-20T12:11:29;91166.56;;;26.84
71807;BMP280;59655;42.590;23.364;2022-08-20T12:13:54;91163.72;;;26.78
71807;BMP280;59655;42.590;23.364;2022-08-20T12:16:20;91171.13;;;26.73
71807;BMP280;59655;42.590;23.364;2022-08-20T12:18:46;91171.78;;;26.72
71807;BMP280;59655;42.590;23.364;2022-08-20T12:21:12;91171.09;;;26.71
71807;BMP280;59655;42.590;23.364;2022-08-20T12:23:37;91175.16;;;26.70
71807;BMP280;59655;42.590;23.364;2022-08-20T12:26:03;91179.25;;;26.69
71807;BMP280;59655;42.590;23.364;2022-08-20T12:28:29;91190.78;;;26.68
71807;BMP280;59655;42.590;23.364;2022-08-20T12:30:55;91202.34;;;26.66
71807;BMP280;59655;42.590;23.364;2022-08-20T12:33:20;91213.97;;;26.69
71807;BMP280;59655;42.590;23.364;2022-08-20T12:35:45;91213.75;;;26.59
71807;BMP280;59655;42.590;23.364;2022-08-20T12:38:11;91219.75;;;26.51
71807;BMP280;59655;42.590;23.364;2022-08-20T12:40:36;91221.06;;;26.48
71807;BMP280;59655;42.590;23.364;2022-08-20T12:43:02;91216.28;;;26.46
71807;BMP280;59655;42.590;23.364;2022-08-20T12:45:29;91217.50;;;26.39
71807;BMP280;59655;42.590;23.364;2022-08-20T12:48:09;91208.53;;;26.33
71807;BMP280;59655;42.590;23.364;2022-08-20T12:50:37;91197.09;;;26.40
71807;BMP280;59655;42.590;23.364;2022-08-20T12:53:03;91188.13;;;26.34
71807;BMP280;59655;42.590;23.364;2022-08-20T12:55:29;91186.09;;;26.34
71807;BMP280;59655;42.590;23.364;2022-08-20T12:57:57;91186.47;;;26.16
71807;BMP280;59655;42.590;23.364;2022-08-20T13:02:51;91180.00;;;26.36
71807;BMP280;59655;42.590;23.364;2022-08-20T13:05:17;91169.44;;;26.94
71807;BMP280;59655;42.590;23.364;2022-08-20T13:07:43;91153.59;;;27.84
71807;BMP280;59655;42.590;23.364;2022-08-20T13:10:16;91126.19;;;28.34
71807;BMP280;59655;42.590;23.364;2022-08-20T13:12:42;91113.63;;;28.09
71807;BMP280;59655;42.590;23.364;2022-08-20T13:15:07;91125.41;;;27.63
71807;BMP280;59655;42.590;23.364;2022-08-20T13:17:33;91135.31;;;27.38
71807;BMP280;59655;42.590;23.364;2022-08-20T13:19:58;91136.56;;;27.29
71807;BMP280;59655;42.590;23.364;2022-08-20T13:22:24;91150.72;;;27.19
71807;BMP280;59655;42.590;23.364;2022-08-20T13:24:49;91162.91;;;27.12
71807;BMP280;59655;42.590;23.364;2022-08-20T13:27:17;91171.53;;;26.98
71807;BMP280;59655;42.590;23.364;2022-08-20T13:29:53;91175.47;;;26.89
71807;BMP280;59655;42.590;23.364;2022-08-20T13:32:20;91184.94;;;26.86
71807;BMP280;59655;42.590;23.364;2022-08-20T13:34:46;91188.28;;;26.82
71807;BMP280;59655;42.590;23.364;2022-08-20T13:39:38;91216.03;;;26.72
71807;BMP280;59655;42.590;23.364;2022-08-20T13:42:05;91218.66;;;26.66
71807;BMP280;59655;42.590;23.364;2022-08-20T13:44:30;91219.91;;;26.59
71807;BMP280;59655;42.590;23.364;2022-08-20T13:46:55;91227.22;;;26.51
71807;BMP280;59655;42.590;23.364;2022-08-20T13:49:21;91229.91;;;26.48
71807;BMP280;59655;42.590;23.364;2022-08-20T13:51:46;91235.47;;;26.20
71807;BMP280;59655;42.590;23.364;2022-08-20T13:54:11;91237.00;;;25.93
71807;BMP280;59655;42.590;23.364;2022-08-20T13:56:37;91232.56;;;26.10
71807;BMP280;59655;42.590;23.364;2022-08-20T13:59:02;91218.25;;;26.08
71807;BMP280;59655;42.590;23.364;2022-08-20T14:01:28;91232.31;;;25.96
71807;BMP280;59655;42.590;23.364;2022-08-20T14:03:53;91231.56;;;25.93
71807;BMP280;59655;42.590;23.364;2022-08-20T14:06:18;91222.69;;;25.61
71807;BMP280;59655;42.590;23.364;2022-08-20T14:08:44;91232.84;;;25.58
71807;BMP280;59655;42.590;23.364;2022-08-20T14:11:09;91245.53;;;25.19